createdAt,value
2018-12-11T00:00:49.679Z,2.70
2018-12-11T00:02:59.212Z,1.83
2018-12-11T00:05:02.888Z,2.90
2018-12-11T00:07:12.479Z,2.53
2018-12-11T00:09:16.808Z,2.33
2018-12-11T00:11:20.950Z,3.13
2018-12-11T00:13:31.292Z,2.90
2018-12-11T00:15:40.254Z,3.20
2018-12-11T00:17:44.603Z,3.57
2018-12-11T00:19:48.365Z,2.87
2018-12-11T00:21:52.362Z,2.80
2018-12-11T00:23:56.433Z,3.30
2018-12-11T00:26:00.313Z,3.50
2018-12-11T00:28:09.122Z,3.30
2018-12-11T00:30:17.919Z,3.07
2018-12-11T00:32:26.670Z,3.37
2018-12-11T00:34:30.711Z,3.13
2018-12-11T00:36:39.560Z,4.67
2018-12-11T00:38:43.521Z,4.10
2018-12-11T00:40:47.493Z,3.20
2018-12-11T00:42:56.153Z,3.37
2018-12-11T00:45:00.235Z,4.10
2018-12-11T00:47:06.290Z,3.90
2018-12-11T00:49:15.020Z,3.07
2018-12-11T00:51:19.197Z,3.80
2018-12-11T00:55:26.748Z,3.00
2018-12-11T00:57:30.509Z,3.50
2018-12-11T01:03:47.825Z,3.17
2018-12-11T01:05:51.823Z,3.00
2018-12-11T01:08:00.450Z,4.37
2018-12-11T01:10:09.717Z,4.07
2018-12-11T01:12:13.526Z,3.20
2018-12-11T01:14:17.231Z,2.63
2018-12-11T01:16:21.411Z,3.20
2018-12-11T01:18:29.860Z,3.63
2018-12-11T01:20:33.876Z,3.60
2018-12-11T01:22:37.776Z,3.27
2018-12-11T01:24:41.644Z,3.90
2018-12-11T01:26:45.675Z,2.70
2018-12-11T01:28:49.667Z,2.73
2018-12-11T01:30:53.649Z,2.60
2018-12-11T01:33:02.047Z,2.87
2018-12-11T01:35:06.153Z,3.33
2018-12-11T01:37:10.164Z,2.53
2018-12-11T01:39:18.875Z,3.00
2018-12-11T01:41:27.775Z,3.47
2018-12-11T01:43:31.968Z,2.50
2018-12-11T01:45:35.745Z,4.90
2018-12-11T01:47:39.790Z,3.37
2018-12-11T01:49:43.712Z,2.57
2018-12-11T01:51:47.659Z,3.53
2018-12-11T01:53:51.439Z,3.17
2018-12-11T01:56:00.068Z,2.33
2018-12-11T01:58:04.015Z,2.60
2018-12-11T02:00:08.639Z,2.70
2018-12-11T02:02:12.960Z,2.43
2018-12-11T02:04:17.137Z,2.73
2018-12-11T02:06:25.816Z,2.97
2018-12-11T02:08:29.669Z,2.70
2018-12-11T02:10:33.648Z,3.80
2018-12-11T02:12:37.711Z,2.57
2018-12-11T02:14:46.606Z,2.83
2018-12-11T02:16:50.811Z,3.00
2018-12-11T02:18:59.579Z,3.80
2018-12-11T02:21:03.801Z,2.07
2018-12-11T02:23:12.629Z,2.93
2018-12-11T02:25:16.750Z,2.13
2018-12-11T02:27:20.752Z,2.10
2018-12-11T02:29:24.719Z,1.63
2018-12-11T02:31:33.433Z,1.37
2018-12-11T02:33:42.418Z,1.93
2018-12-11T02:35:51.237Z,1.83
2018-12-11T02:37:57.338Z,1.63
2018-12-11T02:40:06.146Z,1.60
2018-12-11T02:42:15.861Z,1.60
2018-12-11T02:44:20.069Z,1.87
2018-12-11T02:46:34.601Z,2.27
2018-12-11T02:48:48.809Z,2.33
2018-12-11T02:50:58.352Z,2.10
2018-12-11T02:53:02.355Z,1.93
2018-12-11T02:55:06.245Z,1.83
2018-12-11T02:57:14.887Z,3.33
2018-12-11T02:59:23.730Z,1.70
2018-12-11T03:01:27.800Z,1.63
2018-12-11T03:03:29.663Z,1.40
2018-12-11T03:05:38.285Z,1.47
2018-12-11T03:07:47.306Z,2.10
2018-12-11T03:09:51.419Z,1.70
2018-12-11T03:12:00.132Z,1.87
2018-12-11T03:14:08.747Z,2.47
2018-12-11T03:16:17.532Z,2.03
2018-12-11T03:18:26.269Z,1.90
2018-12-11T03:20:35.063Z,1.60
2018-12-11T03:22:43.713Z,2.67
2018-12-11T03:24:52.526Z,1.80
2018-12-11T03:27:01.326Z,2.10
2018-12-11T03:29:10.104Z,2.30
2018-12-11T03:31:18.896Z,2.80
2018-12-11T03:33:27.576Z,2.03
2018-12-11T03:35:31.395Z,2.50
2018-12-11T03:37:35.437Z,2.80
2018-12-11T03:39:44.373Z,1.87
2018-12-11T03:41:50.268Z,1.93
2018-12-11T03:43:54.408Z,1.67
2018-12-11T03:45:58.187Z,1.70
2018-12-11T03:48:04.536Z,1.70
2018-12-11T03:50:08.572Z,1.80
2018-12-11T03:52:21.446Z,2.00
2018-12-11T03:54:23.848Z,1.73
2018-12-11T03:56:28.501Z,1.53
2018-12-11T03:58:32.416Z,1.40
2018-12-11T04:00:36.358Z,2.03
2018-12-11T04:02:40.254Z,1.90
2018-12-11T04:06:52.762Z,2.27
2018-12-11T04:08:56.770Z,2.37
2018-12-11T04:13:21.229Z,2.33
2018-12-11T04:15:30.127Z,1.63
2018-12-11T04:17:38.825Z,1.57
2018-12-11T04:19:48.814Z,1.50
2018-12-11T04:21:57.517Z,1.90
2018-12-11T04:24:01.314Z,1.87
2018-12-11T04:26:09.979Z,1.67
2018-12-11T04:28:14.259Z,1.57
2018-12-11T04:30:19.978Z,2.23
2018-12-11T04:32:28.761Z,1.80
2018-12-11T04:34:37.505Z,1.63
2018-12-11T04:36:46.305Z,1.93
2018-12-11T04:38:55.300Z,1.70
2018-12-11T04:40:59.620Z,1.37
2018-12-11T04:43:03.400Z,1.73
2018-12-11T04:45:07.599Z,1.90
2018-12-11T04:47:11.431Z,1.67
2018-12-11T04:49:19.955Z,2.20
2018-12-11T04:51:28.774Z,1.90
2018-12-11T04:53:32.872Z,1.70
2018-12-11T04:55:36.749Z,2.13
2018-12-11T04:57:45.443Z,2.03
2018-12-11T04:59:54.133Z,1.90
2018-12-11T05:02:00.288Z,2.13
2018-12-11T05:04:10.091Z,1.77
2018-12-11T05:08:18.131Z,1.60
2018-12-11T05:10:21.787Z,1.60
2018-12-11T05:12:25.763Z,2.03
2018-12-11T05:14:29.644Z,2.23
2018-12-11T05:16:33.781Z,1.80
2018-12-11T05:18:42.435Z,1.97
2018-12-11T05:20:51.201Z,1.80
2018-12-11T05:22:59.829Z,2.43
2018-12-11T05:25:08.656Z,1.97
2018-12-11T05:27:14.939Z,2.20
2018-12-11T05:29:20.543Z,2.13
2018-12-11T05:31:29.192Z,3.30
2018-12-11T05:33:33.098Z,2.03
2018-12-11T05:35:36.797Z,2.00
2018-12-11T05:37:40.813Z,2.50
2018-12-11T05:39:49.550Z,2.27
2018-12-11T05:41:58.313Z,2.17
2018-12-11T05:44:07.104Z,2.43
2018-12-11T05:46:10.949Z,2.40
2018-12-11T05:48:14.640Z,3.07
2018-12-11T05:50:23.473Z,1.50
2018-12-11T05:52:27.507Z,2.70
2018-12-11T05:54:31.504Z,1.93
2018-12-11T05:56:35.256Z,1.77
2018-12-11T05:58:39.137Z,2.30
2018-12-11T06:00:43.024Z,1.90
2018-12-11T06:02:51.612Z,2.20
2018-12-11T06:04:55.792Z,1.97
2018-12-11T06:09:08.170Z,1.60
2018-12-11T06:11:12.379Z,2.47
2018-12-11T06:13:16.591Z,1.90
2018-12-11T06:15:25.912Z,2.83
2018-12-11T06:17:29.932Z,3.00
2018-12-11T06:19:34.042Z,2.20
2018-12-11T06:21:37.959Z,2.13
2018-12-11T06:23:41.600Z,1.80
2018-12-11T06:25:45.461Z,2.30
2018-12-11T06:27:49.161Z,3.10
2018-12-11T06:29:53.028Z,2.30
2018-12-11T06:31:57.156Z,2.17
2018-12-11T06:34:04.041Z,2.27
2018-12-11T06:36:08.143Z,3.33
2018-12-11T06:38:14.015Z,2.90
2018-12-11T06:40:17.920Z,4.03
2018-12-11T06:42:26.572Z,2.50
2018-12-11T06:44:30.643Z,2.97
2018-12-11T06:46:39.497Z,3.37
2018-12-11T06:48:43.663Z,2.47
2018-12-11T06:50:47.671Z,2.60
2018-12-11T06:52:51.649Z,2.77
2018-12-11T06:55:00.265Z,4.57
2018-12-11T06:57:04.637Z,3.23
2018-12-11T06:59:08.529Z,2.20
2018-12-11T07:01:17.263Z,2.37
2018-12-11T07:03:21.366Z,2.87
2018-12-11T07:05:25.068Z,2.47
2018-12-11T07:07:29.036Z,2.13
2018-12-11T07:09:37.801Z,2.87
2018-12-11T07:11:43.891Z,3.40
2018-12-11T07:20:00.158Z,2.27
2018-12-11T07:22:05.983Z,2.60
2018-12-11T07:24:14.639Z,2.90
2018-12-11T07:26:18.825Z,2.90
2018-12-11T07:28:27.593Z,2.63
2018-12-11T07:30:36.240Z,3.83
2018-12-11T07:32:45.308Z,2.90
2018-12-11T07:34:50.188Z,2.77
2018-12-11T07:36:54.281Z,2.37
2018-12-11T07:39:04.612Z,3.20
2018-12-11T07:41:08.176Z,2.77
2018-12-11T07:43:16.805Z,2.90
2018-12-11T07:45:22.389Z,3.00
2018-12-11T07:47:26.752Z,2.87
2018-12-11T07:49:35.726Z,2.97
2018-12-11T07:51:41.566Z,2.40
2018-12-11T07:53:45.545Z,3.10
2018-12-11T07:55:49.331Z,2.70
2018-12-11T07:57:57.695Z,2.87
2018-12-11T08:00:01.730Z,3.50
2018-12-11T08:02:07.814Z,2.90
2018-12-11T08:04:11.710Z,3.90
2018-12-11T08:06:15.600Z,3.10
2018-12-11T08:08:24.316Z,2.47
2018-12-11T08:10:33.365Z,3.00
2018-12-11T08:12:37.422Z,2.93
2018-12-11T08:14:46.322Z,2.80
2018-12-11T08:16:50.437Z,2.50
2018-12-11T08:18:54.750Z,3.20
2018-12-11T08:21:00.315Z,3.03
2018-12-11T08:23:08.832Z,3.73
2018-12-11T08:25:12.905Z,2.30
2018-12-11T08:27:18.827Z,3.77
2018-12-11T08:29:27.608Z,2.97
2018-12-11T08:31:36.514Z,3.40
2018-12-11T08:33:40.501Z,3.17
2018-12-11T08:35:49.253Z,3.13
2018-12-11T08:37:53.268Z,4.37
2018-12-11T08:40:02.348Z,3.40
2018-12-11T08:42:08.175Z,3.93
2018-12-11T08:44:11.744Z,3.83
2018-12-11T08:46:20.272Z,3.13
2018-12-11T08:48:24.289Z,3.73
2018-12-11T08:50:27.949Z,4.37
2018-12-11T08:52:32.056Z,3.27
2018-12-11T08:54:36.074Z,3.30
2018-12-11T08:56:44.701Z,5.13
2018-12-11T08:58:53.598Z,3.23
2018-12-11T09:00:57.919Z,2.83
2018-12-11T09:03:06.398Z,4.50
2018-12-11T09:05:10.499Z,3.37
2018-12-11T09:07:14.497Z,3.57
2018-12-11T09:09:18.322Z,4.30
2018-12-11T09:11:45.742Z,4.20
2018-12-11T09:13:52.135Z,4.83
2018-12-11T09:15:55.962Z,3.60
2018-12-11T09:18:04.710Z,3.83
2018-12-11T09:20:09.049Z,4.80
2018-12-11T09:22:17.694Z,3.70
2018-12-11T09:24:26.460Z,3.90
2018-12-11T09:26:30.556Z,3.10
2018-12-11T09:28:34.221Z,4.13
2018-12-11T09:30:42.877Z,4.37
2018-12-11T09:32:47.119Z,3.37
2018-12-11T09:34:55.685Z,3.07
2018-12-11T09:37:01.856Z,4.27
2018-12-11T09:39:06.504Z,3.67
2018-12-11T09:41:10.661Z,4.73
2018-12-11T09:43:14.584Z,4.00
2018-12-11T09:45:18.436Z,4.13
2018-12-11T09:47:22.408Z,4.60
2018-12-11T09:49:26.430Z,3.67
2018-12-11T09:51:30.386Z,4.07
2018-12-11T09:53:39.070Z,5.30
2018-12-11T09:55:43.205Z,4.10
2018-12-11T09:57:51.770Z,3.73
2018-12-11T10:00:00.675Z,3.77
2018-12-11T10:02:06.917Z,4.67
2018-12-11T10:04:10.727Z,3.73
2018-12-11T10:06:14.548Z,3.27
2018-12-11T10:08:19.648Z,4.53
2018-12-11T10:10:23.350Z,3.73
2018-12-11T10:12:32.109Z,4.50
2018-12-11T10:14:36.037Z,3.97
2018-12-11T10:16:40.103Z,3.57
2018-12-11T10:18:44.087Z,4.50
2018-12-11T10:20:52.692Z,4.60
2018-12-11T10:23:02.449Z,3.80
2018-12-11T10:25:07.770Z,3.13
2018-12-11T10:27:11.736Z,3.77
2018-12-11T10:29:20.409Z,3.77
2018-12-11T10:31:24.481Z,4.10
2018-12-11T10:33:34.795Z,5.00
2018-12-11T10:35:43.727Z,3.97
2018-12-11T10:37:47.969Z,3.90
2018-12-11T10:39:56.596Z,4.97
2018-12-11T10:42:05.752Z,3.53
2018-12-11T10:44:09.616Z,5.63
2018-12-11T10:46:18.146Z,4.90
2018-12-11T10:48:28.049Z,4.17
2018-12-11T10:50:36.835Z,3.53
2018-12-11T10:52:45.685Z,4.27
2018-12-11T10:54:54.464Z,3.93
2018-12-11T10:57:03.300Z,3.60
2018-12-11T10:59:07.708Z,4.60
2018-12-11T11:01:17.968Z,4.93
2018-12-11T11:03:26.422Z,4.27
2018-12-11T11:05:35.489Z,3.27
2018-12-11T11:07:39.778Z,3.97
2018-12-11T11:09:48.309Z,4.87
2018-12-11T11:11:52.530Z,3.23
2018-12-11T11:14:01.131Z,4.40
2018-12-11T11:16:11.944Z,3.43
2018-12-11T11:18:20.904Z,4.67
2018-12-11T11:20:29.793Z,4.13
2018-12-11T11:22:33.862Z,3.60
2018-12-11T11:24:37.736Z,3.40
2018-12-11T11:26:46.588Z,3.47
2018-12-11T11:28:55.305Z,4.23
2018-12-11T11:30:59.479Z,3.67
2018-12-11T11:33:03.241Z,4.17
2018-12-11T11:35:11.899Z,3.17
2018-12-11T11:37:20.704Z,3.77
2018-12-11T11:39:30.150Z,3.77
2018-12-11T11:41:33.764Z,4.00
2018-12-11T11:43:37.622Z,3.40
2018-12-11T11:45:46.382Z,3.87
2018-12-11T11:47:56.011Z,3.90
2018-12-11T11:50:07.015Z,3.97
2018-12-11T11:52:10.986Z,3.73
2018-12-11T11:54:14.787Z,3.20
2018-12-11T11:56:23.822Z,3.63
2018-12-11T11:58:32.409Z,3.70
2018-12-11T12:00:36.522Z,3.27
2018-12-11T12:02:46.211Z,4.47
2018-12-11T12:04:50.375Z,3.63
2018-12-11T12:06:59.129Z,3.40
2018-12-11T12:09:06.179Z,2.57
2018-12-11T12:11:10.124Z,3.63
2018-12-11T12:13:18.728Z,4.37
2018-12-11T12:15:28.355Z,4.27
2018-12-11T12:17:32.293Z,3.30
2018-12-11T12:19:40.922Z,3.63
2018-12-11T12:21:49.560Z,3.10
2018-12-11T12:23:53.694Z,2.73
2018-12-11T12:25:57.562Z,4.77
2018-12-11T12:30:10.002Z,4.03
2018-12-11T12:32:14.108Z,3.20
2018-12-11T12:34:18.166Z,3.43
2018-12-11T12:36:26.708Z,3.50
2018-12-11T12:38:32.877Z,3.27
2018-12-11T12:40:41.301Z,4.23
2018-12-11T12:42:51.104Z,3.37
2018-12-11T12:45:00.096Z,2.97
2018-12-11T12:47:06.248Z,3.23
2018-12-11T12:49:14.776Z,3.20
2018-12-11T12:51:18.907Z,3.00
2018-12-11T12:53:27.571Z,3.57
2018-12-11T12:55:31.563Z,2.70
2018-12-11T12:57:40.139Z,3.20
2018-12-11T12:59:44.273Z,3.07
2018-12-11T13:01:52.813Z,3.67
2018-12-11T13:03:56.924Z,2.60
2018-12-11T13:06:00.778Z,2.77
2018-12-11T13:08:09.355Z,2.87
2018-12-11T13:10:13.604Z,2.20
2018-12-11T13:12:19.476Z,2.80
2018-12-11T13:14:23.452Z,2.80
2018-12-11T13:16:32.178Z,2.70
2018-12-11T13:18:41.003Z,2.53
2018-12-11T13:20:50.458Z,2.10
2018-12-11T13:22:53.870Z,1.80
2018-12-11T13:24:57.952Z,2.57
2018-12-11T13:27:03.692Z,1.77
2018-12-11T13:29:12.253Z,1.70
2018-12-11T13:31:16.583Z,2.10
2018-12-11T13:33:20.397Z,1.73
2018-12-11T13:35:24.199Z,1.70
2018-12-11T13:37:32.868Z,1.40
2018-12-11T13:39:36.807Z,1.20
2018-12-11T13:41:45.464Z,1.97
2018-12-11T13:43:49.797Z,1.60
2018-12-11T13:45:53.284Z,2.07
2018-12-11T13:48:01.841Z,2.20
2018-12-11T13:50:10.545Z,2.47
2018-12-11T13:52:20.884Z,2.00
2018-12-11T13:54:29.556Z,1.97
2018-12-11T13:56:33.630Z,2.10
2018-12-11T13:58:42.149Z,1.50
2018-12-11T14:00:50.914Z,1.10
2018-12-11T14:02:54.988Z,1.73
2018-12-11T14:04:58.980Z,1.60
2018-12-11T14:07:07.664Z,1.30
2018-12-11T14:09:17.067Z,1.10
2018-12-11T14:13:48.888Z,1.20
2018-12-11T14:15:57.868Z,2.10
2018-12-11T14:18:01.848Z,2.00
2018-12-11T14:20:10.410Z,2.20
2018-12-11T14:22:19.128Z,1.90
2018-12-11T14:24:25.249Z,1.73
2018-12-11T14:26:29.030Z,2.33
2018-12-11T14:28:37.699Z,2.07
2018-12-11T14:32:44.710Z,1.93
2018-12-11T14:34:53.476Z,1.90
2018-12-11T14:36:57.582Z,1.77
2018-12-11T14:39:06.884Z,1.90
2018-12-11T14:41:10.250Z,2.63
2018-12-11T14:43:20.053Z,2.07
2018-12-11T14:45:24.218Z,1.80
2018-12-11T14:47:28.305Z,2.00
2018-12-11T14:49:36.947Z,2.17
2018-12-11T14:51:45.696Z,2.53
2018-12-11T14:53:49.859Z,2.93
2018-12-11T14:55:53.768Z,2.60
2018-12-11T14:57:57.963Z,2.43
2018-12-11T15:00:01.909Z,2.30
2018-12-11T15:02:07.797Z,2.10
2018-12-11T15:04:16.461Z,3.07
2018-12-11T15:06:20.588Z,2.90
2018-12-11T15:08:24.766Z,2.60
2018-12-11T15:10:28.695Z,2.67
2018-12-11T15:12:37.189Z,2.57
2018-12-11T15:14:41.332Z,3.30
2018-12-11T15:16:50.223Z,2.67
2018-12-11T15:18:54.310Z,2.60
2018-12-11T15:20:58.069Z,2.50
2018-12-11T15:23:02.127Z,3.13
2018-12-11T15:25:06.072Z,2.43
2018-12-11T15:27:14.807Z,2.90
2018-12-11T15:29:23.644Z,2.43
2018-12-11T15:33:30.613Z,4.23
2018-12-11T15:35:34.632Z,2.70
2018-12-11T15:37:38.576Z,3.30
2018-12-11T15:39:47.180Z,3.00
2018-12-11T15:41:55.934Z,3.13
2018-12-11T15:44:04.835Z,3.03
2018-12-11T15:46:08.943Z,3.50
2018-12-11T15:48:12.968Z,3.60
2018-12-11T15:50:21.509Z,3.13
2018-12-11T15:52:25.716Z,2.93
2018-12-11T15:54:29.627Z,2.70
2018-12-11T15:56:33.605Z,3.03
2018-12-11T15:58:37.461Z,3.10
2018-12-11T16:00:46.207Z,2.50
2018-12-11T16:02:50.287Z,2.47
2018-12-11T16:04:54.185Z,2.67
2018-12-11T16:07:02.854Z,2.80
2018-12-11T16:09:09.587Z,2.63
2018-12-11T16:11:18.626Z,2.73
2018-12-11T16:13:22.413Z,2.17
2018-12-11T16:15:31.044Z,3.10
2018-12-11T16:17:35.143Z,2.83
2018-12-11T16:19:43.730Z,2.47
2018-12-11T16:21:47.837Z,3.17
2018-12-11T16:23:51.597Z,1.83
2018-12-11T16:25:55.486Z,2.90
2018-12-11T16:27:59.395Z,2.30
2018-12-11T16:30:08.511Z,2.87
2018-12-11T16:34:20.702Z,3.07
2018-12-11T16:36:29.681Z,2.13
2018-12-11T16:38:33.552Z,2.67
2018-12-11T16:40:42.406Z,2.50
2018-12-11T16:42:46.326Z,2.37
2018-12-11T16:44:50.096Z,2.57
2018-12-11T16:46:58.874Z,3.10
2018-12-11T16:49:07.735Z,3.23
2018-12-11T16:51:11.912Z,2.53
2018-12-11T16:53:20.528Z,2.77
2018-12-11T16:55:24.600Z,3.17
2018-12-11T16:57:33.353Z,2.37
2018-12-11T16:59:42.089Z,2.30
2018-12-11T17:01:48.315Z,3.23
2018-12-11T17:03:52.312Z,2.50
2018-12-11T17:05:56.299Z,2.60
2018-12-11T17:08:00.365Z,2.13
2018-12-11T17:10:05.075Z,2.70
2018-12-11T17:12:09.662Z,2.87
2018-12-11T17:14:13.192Z,2.23
2018-12-11T17:16:17.058Z,2.87
2018-12-11T17:18:25.665Z,2.93
2018-12-11T17:20:34.696Z,2.77
2018-12-11T17:22:38.400Z,2.97
2018-12-11T17:24:47.013Z,3.40
2018-12-11T17:26:50.872Z,3.63
2018-12-11T17:28:59.696Z,2.40
2018-12-11T17:31:03.802Z,2.10
2018-12-11T17:33:12.655Z,3.40
2018-12-11T17:35:21.379Z,4.27
2018-12-11T17:37:25.644Z,5.30
2018-12-11T17:39:34.543Z,4.47
2018-12-11T17:41:38.299Z,3.30
2018-12-11T17:43:47.097Z,3.67
2018-12-11T17:45:55.803Z,3.80
2018-12-11T17:48:05.475Z,3.93
2018-12-11T17:50:09.674Z,3.47
2018-12-11T17:52:18.283Z,3.27
2018-12-11T17:54:27.057Z,2.80
2018-12-11T17:56:31.089Z,2.70
2018-12-11T17:58:34.944Z,2.60
2018-12-11T18:00:43.880Z,3.47
2018-12-11T18:02:52.673Z,2.93
2018-12-11T18:05:01.266Z,3.40
2018-12-11T18:07:07.352Z,4.63
2018-12-11T18:09:16.085Z,3.77
2018-12-11T18:11:20.117Z,3.83
2018-12-11T18:13:24.056Z,3.10
2018-12-11T18:15:32.716Z,3.87
2018-12-11T18:17:41.389Z,2.70
2018-12-11T18:19:50.277Z,4.63
2018-12-11T18:21:54.332Z,3.23
2018-12-11T18:23:58.365Z,3.00
2018-12-11T18:26:07.144Z,2.93
2018-12-11T18:28:11.333Z,3.90
2018-12-11T18:30:20.065Z,3.73
2018-12-11T18:32:29.145Z,2.57
2018-12-11T18:34:35.224Z,3.40
2018-12-11T18:36:44.221Z,3.10
2018-12-11T18:38:47.971Z,3.73
2018-12-11T18:40:51.843Z,4.53
2018-12-11T18:43:00.434Z,5.03
2018-12-11T18:45:09.339Z,3.87
2018-12-11T18:47:13.448Z,4.30
2018-12-11T18:49:21.754Z,3.83
2018-12-11T18:51:25.713Z,3.10
2018-12-11T18:53:31.824Z,4.70
2018-12-11T18:55:40.380Z,3.83
2018-12-11T18:57:49.036Z,3.27
2018-12-11T18:59:57.706Z,3.07
2018-12-11T19:02:03.736Z,3.40
2018-12-11T19:04:07.700Z,3.33
2018-12-11T19:06:11.392Z,3.13
2018-12-11T19:08:15.341Z,3.90
2018-12-11T19:10:19.390Z,4.00
2018-12-11T19:12:27.974Z,3.97
2018-12-11T19:14:37.003Z,4.03
2018-12-11T19:16:41.132Z,4.67
2018-12-11T19:18:49.752Z,4.10
2018-12-11T19:20:58.698Z,4.57
2018-12-11T19:23:06.808Z,4.27
2018-12-11T19:25:14.708Z,4.03
2018-12-11T19:27:23.374Z,4.00
2018-12-11T19:29:32.123Z,3.20
2018-12-11T19:31:36.220Z,3.77
2018-12-11T19:33:39.961Z,3.37
2018-12-11T19:35:45.755Z,4.13
2018-12-11T19:37:54.377Z,3.73
2018-12-11T19:40:02.110Z,4.13
2018-12-11T19:42:06.352Z,5.23
2018-12-11T19:44:15.250Z,4.20
2018-12-11T19:46:19.263Z,3.97
2018-12-11T19:48:23.261Z,3.70
2018-12-11T19:50:31.979Z,3.43
2018-12-11T19:52:39.635Z,3.93
2018-12-11T19:54:41.821Z,3.80
2018-12-11T19:56:50.599Z,4.50
2018-12-11T19:58:59.427Z,3.80
2018-12-11T20:01:03.699Z,3.33
2018-12-11T20:03:12.140Z,3.30
2018-12-11T20:05:18.258Z,3.57
2018-12-11T20:07:26.944Z,3.50
2018-12-11T20:09:31.044Z,3.60
2018-12-11T20:11:36.960Z,3.33
2018-12-11T20:13:45.539Z,3.23
2018-12-11T20:15:55.244Z,3.20
2018-12-11T20:17:59.460Z,3.50
2018-12-11T20:20:06.558Z,3.47
2018-12-11T20:22:10.189Z,4.40
2018-12-11T20:24:14.359Z,3.30
2018-12-11T20:26:20.063Z,3.77
2018-12-11T20:28:28.599Z,4.37
2018-12-11T20:30:32.813Z,4.27
2018-12-11T20:32:36.571Z,4.57
2018-12-11T20:34:40.435Z,4.10
2018-12-11T20:36:44.839Z,3.87
2018-12-11T20:38:49.381Z,4.40
2018-12-11T20:40:58.240Z,3.97
2018-12-11T20:43:07.240Z,3.70
2018-12-11T20:45:11.126Z,4.07
2018-12-11T20:47:20.020Z,4.10
2018-12-11T20:49:24.142Z,4.23
2018-12-11T20:51:28.128Z,3.57
2018-12-11T20:53:37.079Z,4.00
2018-12-11T20:55:40.968Z,4.00
2018-12-11T20:57:44.940Z,4.30
2018-12-11T20:59:53.736Z,5.70
2018-12-11T21:02:02.573Z,5.97
2018-12-11T21:04:11.625Z,6.60
2018-12-11T21:06:15.905Z,7.20
2018-12-11T21:08:19.904Z,8.40
2018-12-11T21:10:23.539Z,7.40
2018-12-11T21:12:27.340Z,8.90
2018-12-11T21:14:31.248Z,8.17
2018-12-11T21:16:35.314Z,7.27
2018-12-11T21:18:39.241Z,8.20
2018-12-11T21:20:48.892Z,9.47
2018-12-11T21:22:53.073Z,9.10
2018-12-11T21:25:02.005Z,8.40
2018-12-11T21:27:05.877Z,9.37
2018-12-11T21:29:10.207Z,8.00
2018-12-11T21:31:13.939Z,6.90
2018-12-11T21:33:17.844Z,7.53
2018-12-11T21:35:21.753Z,8.40
2018-12-11T21:37:25.611Z,8.03
2018-12-11T21:43:39.677Z,7.73
2018-12-11T21:45:43.570Z,6.53
2018-12-11T21:47:52.504Z,8.23
2018-12-11T21:49:56.479Z,7.63
2018-12-11T21:52:05.298Z,7.20
2018-12-11T21:54:09.167Z,7.17
2018-12-11T21:56:17.948Z,5.73
2018-12-11T21:58:21.959Z,6.20
2018-12-11T22:00:25.783Z,6.10
2018-12-11T22:02:29.702Z,6.77
2018-12-11T22:04:38.402Z,6.30
2018-12-11T22:06:42.531Z,5.83
2018-12-11T22:08:46.396Z,5.43
2018-12-11T22:10:50.272Z,6.27
2018-12-11T22:12:54.378Z,6.87
2018-12-11T22:15:04.862Z,7.17
2018-12-11T22:17:08.953Z,7.40
2018-12-11T22:19:12.832Z,7.73
2018-12-11T22:21:22.544Z,6.90
2018-12-11T22:23:26.442Z,6.60
2018-12-11T22:25:30.216Z,7.00
2018-12-11T22:27:38.876Z,6.67
2018-12-11T22:29:42.966Z,5.97
2018-12-11T22:31:46.868Z,6.43
2018-12-11T22:33:55.688Z,6.10
2018-12-11T22:35:59.857Z,7.53
2018-12-11T22:38:08.385Z,6.33
2018-12-11T22:40:17.000Z,5.73
2018-12-11T22:44:30.760Z,6.57
2018-12-11T22:46:39.725Z,5.77
2018-12-11T22:48:49.719Z,6.50
2018-12-11T22:50:53.779Z,5.93
2018-12-11T22:52:59.339Z,5.93
2018-12-11T22:55:03.556Z,5.63
2018-12-11T22:57:07.330Z,5.90
2018-12-11T22:59:16.124Z,5.27
2018-12-11T23:01:19.905Z,5.57
2018-12-11T23:03:23.560Z,5.30
2018-12-11T23:05:32.316Z,5.60
2018-12-11T23:07:41.172Z,6.73
2018-12-11T23:09:50.075Z,5.60
2018-12-11T23:11:59.091Z,5.20
2018-12-11T23:14:07.810Z,6.10
2018-12-11T23:16:13.972Z,5.10
2018-12-11T23:18:22.774Z,5.70
2018-12-11T23:20:31.653Z,5.97
2018-12-11T23:22:40.299Z,6.63
2018-12-11T23:24:44.707Z,6.27
2018-12-11T23:26:53.435Z,5.97
2018-12-11T23:28:57.535Z,6.57
2018-12-11T23:31:07.283Z,5.80
2018-12-11T23:33:11.623Z,5.73
2018-12-11T23:35:20.472Z,8.00
2018-12-11T23:37:26.496Z,9.57
2018-12-11T23:39:35.299Z,8.60
2018-12-11T23:41:39.455Z,8.67
2018-12-11T23:47:52.374Z,6.67
2018-12-11T23:49:56.344Z,7.50
2018-12-11T23:52:04.994Z,6.97
2018-12-11T23:54:09.285Z,6.83
2018-12-11T23:56:13.276Z,5.10
2018-12-11T23:58:17.191Z,6.93
